Time,TemperatureF,DewpointF,PressureIn,WindDirection,WindDirectionDegrees,WindSpeedMPH,WindSpeedGustMPH,Humidity,HourlyPrecipIn,Conditions,Clouds,dailyrainin,SoftwareType,DateUTC
2013-02-14 00:01:00,71.8,59.8,30.04,SSE,166,0.0,0.0,66,0.00,CLR,,0.00,WeatherDisplay:10.37,2013-02-13 13:01:00,
2013-02-14 00:06:00,71.6,59.7,30.04,SSE,160,0.0,0.0,66,0.00,CLR,,0.00,WeatherDisplay:10.37,2013-02-13 13:06:00,
2013-02-14 00:11:00,71.4,59.5,30.04,South,177,0.0,0.0,66,0.00,CLR,,0.00,WeatherDisplay:10.37,2013-02-13 13:11:00,
2013-02-14 00:16:00,71.3,59.8,30.04,South,189,0.0,0.0,67,0.00,CLR,,0.00,WeatherDisplay:10.37,2013-02-13 13:16:00,
2013-02-14 00:21:00,71.2,59.7,30.04,SSW,198,0.0,0.0,67,0.00,CLR,,0.00,WeatherDisplay:10.37,2013-02-13 13:21:00,
2013-02-14 00:26:00,70.9,59.4,30.04,SSW,193,0.0,0.0,67,0.00,CLR,,0.00,WeatherDisplay:10.37,2013-02-13 13:26:00,
2013-02-14 00:31:00,70.7,59.2,30.04,SSW,197,0.0,0.0,67,0.00,CLR,,0.00,WeatherDisplay:10.37,2013-02-13 13:31:00,
2013-02-14 00:36:00,70.5,59.0,30.04,SSW,200,0.0,0.0,67,0.00,CLR,,0.00,WeatherDisplay:10.37,2013-02-13 13:36:00,
2013-02-14 00:41:00,70.3,58.9,30.04,SSW,199,0.0,0.0,67,0.00,CLR,,0.00,WeatherDisplay:10.37,2013-02-13 13:41:00,
2013-02-14 00:46:00,70.2,58.7,30.04,SSW,201,0.0,0.0,67,0.00,CLR,,0.00,WeatherDisplay:10.37,2013-02-13 13:46:00,
2013-02-14 00:51:00,70.0,58.5,30.04,SSW,201,0.0,0.0,67,0.00,CLR,,0.00,WeatherDisplay:10.37,2013-02-13 13:51:00,
2013-02-14 00:56:00,69.8,58.3,30.03,SSW,200,0.0,0.0,67,0.00,CLR,,0.00,WeatherDisplay:10.37,2013-02-13 13:56:00,
2013-02-14 01:01:00,69.6,58.2,30.03,SSW,200,0.0,0.0,67,0.00,CLR,,0.00,WeatherDisplay:10.37,2013-02-13 14:01:00,
2013-02-14 01:06:00,69.6,58.6,30.03,SSW,201,0.0,0.0,68,0.00,CLR,,0.00,WeatherDisplay:10.37,2013-02-13 14:06:00,
2013-02-14 01:11:00,69.4,58.4,30.03,SSW,200,0.0,0.0,68,0.00,CLR,,0.00,WeatherDisplay:10.37,2013-02-13 14:11:00,
2013-02-14 01:16:00,69.1,58.1,30.02,SSW,197,0.0,0.0,68,0.00,CLR,,0.00,WeatherDisplay:10.37,2013-02-13 14:16:00,
2013-02-14 01:21:00,68.9,57.9,30.02,South,176,0.0,0.0,68,0.00,CLR,,0.00,WeatherDisplay:10.37,2013-02-13 14:21:00,
2013-02-14 01:26:00,68.7,57.7,30.02,South,173,0.0,0.0,68,0.00,CLR,,0.00,WeatherDisplay:10.37,2013-02-13 14:26:00,
2013-02-14 01:31:00,68.5,58.0,30.02,South,180,0.0,0.0,69,0.00,CLR,,0.00,WeatherDisplay:10.37,2013-02-13 14:31:00,
2013-02-14 01:36:00,68.4,57.9,30.02,South,183,0.0,0.0,69,0.00,CLR,,0.00,WeatherDisplay:10.37,2013-02-13 14:36:00,
2013-02-14 01:41:00,68.4,57.8,30.02,SSW,195,0.0,0.0,69,0.00,CLR,,0.00,WeatherDisplay:10.37,2013-02-13 14:41:00,
2013-02-14 01:46:00,68.3,57.8,30.02,SSW,202,0.0,0.0,69,0.00,CLR,,0.00,WeatherDisplay:10.37,2013-02-13 14:46:00,
2013-02-14 01:51:00,68.2,58.0,30.01,SSW,202,0.0,0.0,70,0.00,CLR,,0.00,WeatherDisplay:10.37,2013-02-13 14:51:00,
2013-02-14 01:56:00,68.0,57.9,30.02,SSW,202,0.0,0.0,70,0.00,CLR,,0.00,WeatherDisplay:10.37,2013-02-13 14:56:00,
2013-02-14 02:01:00,67.8,57.7,30.02,SSW,202,0.0,0.0,70,0.00,CLR,,0.00,WeatherDisplay:10.37,2013-02-13 15:01:00,
2013-02-14 02:06:00,67.8,57.7,30.02,SSW,202,0.0,0.0,70,0.00,CLR,,0.00,WeatherDisplay:10.37,2013-02-13 15:06:00,
2013-02-14 02:11:00,67.6,57.5,30.01,SSW,202,0.0,0.0,70,0.00,CLR,,0.00,WeatherDisplay:10.37,2013-02-13 15:11:00,
2013-02-14 02:16:00,67.6,57.5,30.01,SSW,202,0.0,0.0,70,0.00,CLR,,0.00,WeatherDisplay:10.37,2013-02-13 15:16:00,
2013-02-14 02:21:00,67.3,57.2,30.01,SSW,202,0.0,0.0,70,0.00,CLR,,0.00,WeatherDisplay:10.37,2013-02-13 15:21:00,
2013-02-14 02:26:00,67.1,57.4,30.01,SSW,193,0.0,0.0,71,0.00,CLR,,0.00,WeatherDisplay:10.37,2013-02-13 15:26:00,
2013-02-14 02:31:00,66.9,57.2,30.01,SSW,193,0.0,0.0,71,0.00,CLR,,0.00,WeatherDisplay:10.37,2013-02-13 15:31:00,
2013-02-14 02:36:00,66.7,57.0,30.01,South,190,0.0,0.0,71,0.00,CLR,,0.00,WeatherDisplay:10.37,2013-02-13 15:36:00,
2013-02-14 02:41:00,66.7,57.0,30.01,South,184,0.0,0.0,71,0.00,CLR,,0.00,WeatherDisplay:10.37,2013-02-13 15:41:00,
2013-02-14 02:46:00,66.6,57.3,30.01,SSW,193,0.0,0.0,72,0.00,CLR,,0.00,WeatherDisplay:10.37,2013-02-13 15:46:00,
2013-02-14 02:51:00,66.4,57.1,30.00,SSW,199,0.0,0.0,72,0.00,CLR,,0.00,WeatherDisplay:10.37,2013-02-13 15:51:00,
2013-02-14 02:56:00,66.4,57.1,30.01,SSW,202,0.0,0.0,72,0.00,CLR,,0.00,WeatherDisplay:10.37,2013-02-13 15:56:00,
2013-02-14 03:01:00,66.2,56.9,30.00,SSW,202,0.0,0.0,72,0.00,CLR,,0.00,WeatherDisplay:10.37,2013-02-13 16:01:00,
2013-02-14 03:06:00,66.0,56.7,30.00,SSW,202,0.0,0.0,72,0.00,CLR,,0.00,WeatherDisplay:10.37,2013-02-13 16:06:00,
2013-02-14 03:11:00,66.0,56.7,30.01,SSW,201,0.0,0.0,72,0.00,CLR,,0.00,WeatherDisplay:10.37,2013-02-13 16:11:00,
2013-02-14 03:16:00,66.0,56.7,30.00,SSW,202,0.0,0.0,72,0.00,CLR,,0.00,WeatherDisplay:10.37,2013-02-13 16:16:00,
2013-02-14 03:21:00,66.0,56.7,30.00,SSW,202,0.0,0.0,72,0.00,CLR,,0.00,WeatherDisplay:10.37,2013-02-13 16:21:00,
2013-02-14 03:26:00,65.8,56.6,30.00,SSW,202,0.0,0.0,72,0.00,CLR,,0.00,WeatherDisplay:10.37,2013-02-13 16:26:00,
2013-02-14 03:31:00,65.8,56.6,30.00,SSW,202,0.0,0.0,72,0.00,CLR,,0.00,WeatherDisplay:10.37,2013-02-13 16:31:00,
2013-02-14 03:36:00,65.8,56.9,30.00,SSW,202,0.0,0.0,73,0.00,CLR,,0.00,WeatherDisplay:10.37,2013-02-13 16:36:00,
2013-02-14 03:41:00,65.8,57.3,30.00,SSW,202,0.0,0.0,74,0.00,CLR,,0.00,WeatherDisplay:10.37,2013-02-13 16:41:00,
2013-02-14 03:46:00,65.8,57.3,30.00,SSW,197,0.0,0.0,74,0.00,CLR,,0.00,WeatherDisplay:10.37,2013-02-13 16:46:00,
2013-02-14 03:51:00,65.8,57.3,30.00,SSE,156,0.0,0.0,74,0.00,CLR,,0.00,WeatherDisplay:10.37,2013-02-13 16:51:00,
2013-02-14 03:56:00,65.8,57.3,30.00,East,83,0.0,0.0,74,0.00,CLR,,0.00,WeatherDisplay:10.37,2013-02-13 16:56:00,
2013-02-14 04:01:00,65.8,57.7,30.00,ENE,69,0.0,0.0,75,0.00,CLR,,0.00,WeatherDisplay:10.37,2013-02-13 17:01:00,
2013-02-14 04:06:00,65.8,57.7,30.00,ENE,68,0.0,0.0,75,0.00,CLR,,0.00,WeatherDisplay:10.37,2013-02-13 17:06:00,
2013-02-14 04:11:00,65.8,57.7,30.00,ENE,68,0.0,0.0,75,0.00,CLR,,0.00,WeatherDisplay:10.37,2013-02-13 17:11:00,
2013-02-14 04:16:00,65.8,58.1,29.99,ENE,74,0.0,0.0,76,0.00,CLR,,0.00,WeatherDisplay:10.37,2013-02-13 17:16:00,
2013-02-14 04:21:00,65.7,57.9,29.99,East,88,0.0,0.0,76,0.00,CLR,,0.00,WeatherDisplay:10.37,2013-02-13 17:21:00,
2013-02-14 04:26:00,65.7,57.9,30.00,East,98,0.0,0.0,76,0.00,CLR,,0.00,WeatherDisplay:10.37,2013-02-13 17:26:00,
2013-02-14 04:31:00,65.7,57.9,29.99,East,82,0.0,0.0,76,0.00,CLR,,0.00,WeatherDisplay:10.37,2013-02-13 17:31:00,
2013-02-14 04:36:00,65.5,58.1,29.99,ENE,68,0.0,0.0,77,0.00,CLR,,0.00,WeatherDisplay:10.37,2013-02-13 17:36:00,
2013-02-14 04:41:00,65.5,58.1,29.99,ENE,59,0.0,0.0,77,0.00,CLR,,0.00,WeatherDisplay:10.37,2013-02-13 17:41:00,
2013-02-14 04:46:00,65.5,58.1,29.99,NNE,13,0.0,0.0,77,0.00,CLR,,0.00,WeatherDisplay:10.37,2013-02-13 17:46:00,
2013-02-14 04:51:00,65.3,57.9,29.99,WSW,255,0.0,0.0,77,0.00,CLR,,0.00,WeatherDisplay:10.37,2013-02-13 17:51:00,
2013-02-14 04:56:00,65.3,57.9,29.99,WSW,242,0.0,0.0,77,0.00,CLR,,0.00,WeatherDisplay:10.37,2013-02-13 17:56:00,
2013-02-14 05:01:00,65.2,57.8,29.99,WSW,248,0.0,0.0,77,0.00,CLR,,0.00,WeatherDisplay:10.37,2013-02-13 18:01:00,
2013-02-14 05:06:00,65.1,57.7,29.99,WSW,257,0.0,0.0,77,0.00,CLR,,0.00,WeatherDisplay:10.37,2013-02-13 18:06:00,
2013-02-14 05:11:00,65.1,57.7,29.99,North,354,0.0,0.0,77,0.00,CLR,,0.00,WeatherDisplay:10.37,2013-02-13 18:11:00,
2013-02-14 05:16:00,64.9,57.2,29.99,NE,40,0.0,0.0,76,0.00,CLR,,0.00,WeatherDisplay:10.37,2013-02-13 18:16:00,
2013-02-14 05:21:00,64.8,57.4,29.99,East,86,0.0,0.0,77,0.00,CLR,,0.00,WeatherDisplay:10.37,2013-02-13 18:21:00,
2013-02-14 05:26:00,64.6,57.2,29.99,SSE,166,0.0,0.0,77,0.00,CLR,,0.00,WeatherDisplay:10.37,2013-02-13 18:26:00,
2013-02-14 05:31:00,64.6,57.2,29.99,South,180,0.0,0.0,77,0.00,CLR,,0.00,WeatherDisplay:10.37,2013-02-13 18:31:00,
2013-02-14 05:36:00,64.2,56.9,29.99,South,180,0.0,0.0,77,0.00,CLR,,0.00,WeatherDisplay:10.37,2013-02-13 18:36:00,
2013-02-14 05:41:00,64.2,56.9,30.00,South,180,0.0,0.0,77,0.00,CLR,,0.00,WeatherDisplay:10.37,2013-02-13 18:41:00,
2013-02-14 05:46:00,64.2,56.9,29.99,South,182,0.0,0.0,77,0.00,CLR,,0.00,WeatherDisplay:10.37,2013-02-13 18:46:00,
2013-02-14 05:51:00,64.0,56.7,30.00,South,187,0.0,0.0,77,0.00,CLR,,0.00,WeatherDisplay:10.37,2013-02-13 18:51:00,
2013-02-14 05:56:00,64.0,56.7,29.99,South,184,0.0,0.0,77,0.00,CLR,,0.00,WeatherDisplay:10.37,2013-02-13 18:56:00,
2013-02-14 06:01:00,63.7,56.4,30.00,South,180,0.0,0.0,77,0.00,CLR,,0.00,WeatherDisplay:10.37,2013-02-13 19:01:00,
2013-02-14 06:06:00,63.7,56.7,30.00,South,180,0.0,0.0,78,0.00,CLR,,0.00,WeatherDisplay:10.37,2013-02-13 19:06:00,
2013-02-14 06:11:00,63.7,56.7,29.99,South,180,0.0,0.0,78,0.00,CLR,,0.00,WeatherDisplay:10.37,2013-02-13 19:11:00,
2013-02-14 06:16:00,63.5,56.5,30.00,South,185,0.0,0.0,78,0.00,CLR,,0.00,WeatherDisplay:10.37,2013-02-13 19:16:00,
2013-02-14 06:21:00,63.4,56.4,30.00,South,181,0.0,0.0,78,0.00,CLR,,0.00,WeatherDisplay:10.37,2013-02-13 19:21:00,
2013-02-14 06:26:00,63.3,56.3,30.00,SSW,194,0.0,0.0,78,0.00,CLR,,0.00,WeatherDisplay:10.37,2013-02-13 19:26:00,
2013-02-14 06:31:00,63.3,56.3,30.00,SSW,202,0.0,0.0,78,0.00,CLR,,0.00,WeatherDisplay:10.37,2013-02-13 19:31:00,
2013-02-14 06:36:00,63.3,56.3,30.00,SW,214,0.0,0.0,78,0.00,CLR,,0.00,WeatherDisplay:10.37,2013-02-13 19:36:00,
2013-02-14 06:41:00,63.1,56.2,30.00,WSW,251,0.0,0.0,78,0.00,CLR,,0.00,WeatherDisplay:10.37,2013-02-13 19:41:00,
2013-02-14 06:46:00,63.3,56.3,30.00,West,270,0.0,0.0,78,0.00,CLR,,0.00,WeatherDisplay:10.37,2013-02-13 19:46:00,
2013-02-14 06:51:00,63.3,56.3,30.00,NW,304,0.0,0.0,78,0.00,CLR,,0.00,WeatherDisplay:10.37,2013-02-13 19:51:00,
2013-02-14 06:56:00,63.2,56.3,30.01,NW,313,0.0,0.0,78,0.00,CLR,,0.00,WeatherDisplay:10.37,2013-02-13 19:56:00,
2013-02-14 07:01:00,63.3,56.3,30.01,North,350,0.0,0.0,78,0.00,CLR,,0.00,WeatherDisplay:10.37,2013-02-13 20:01:00,
2013-02-14 07:06:00,63.1,56.5,30.01,NNE,23,0.0,0.0,79,0.00,CLR,,0.00,WeatherDisplay:10.37,2013-02-13 20:06:00,
2013-02-14 07:11:00,63.3,56.7,30.01,NNE,17,0.0,0.0,79,0.00,CLR,,0.00,WeatherDisplay:10.37,2013-02-13 20:11:00,
2013-02-14 07:16:00,63.3,56.7,30.01,NNE,19,0.0,0.0,79,0.00,CLR,,0.00,WeatherDisplay:10.37,2013-02-13 20:16:00,
2013-02-14 07:21:00,63.3,56.7,30.02,NNE,26,0.0,0.0,79,0.00,CLR,,0.00,WeatherDisplay:10.37,2013-02-13 20:21:00,
2013-02-14 07:26:00,63.3,56.7,30.02,NE,38,0.0,0.0,79,0.00,CLR,,0.00,WeatherDisplay:10.37,2013-02-13 20:26:00,
2013-02-14 07:31:00,63.4,56.8,30.02,NE,45,0.0,0.0,79,0.00,CLR,,0.00,WeatherDisplay:10.37,2013-02-13 20:31:00,
2013-02-14 07:36:00,63.5,56.9,30.02,NE,45,0.0,0.0,79,0.00,CLR,,0.00,WeatherDisplay:10.37,2013-02-13 20:36:00,
2013-02-14 07:41:00,63.7,57.0,30.02,NE,43,0.0,0.0,79,0.00,CLR,,0.00,WeatherDisplay:10.37,2013-02-13 20:41:00,
2013-02-14 07:46:00,63.7,57.0,30.02,NE,46,0.0,0.0,79,0.00,CLR,,0.00,WeatherDisplay:10.37,2013-02-13 20:46:00,
2013-02-14 07:51:00,63.9,57.6,30.03,NE,48,0.0,0.0,80,0.00,CLR,,0.00,WeatherDisplay:10.37,2013-02-13 20:51:00,
2013-02-14 07:56:00,64.0,57.4,30.03,NNE,33,0.0,0.0,79,0.00,CLR,,0.00,WeatherDisplay:10.37,2013-02-13 20:56:00,
2013-02-14 08:01:00,64.2,57.9,30.03,NNE,30,0.0,0.0,80,0.00,CLR,,0.00,WeatherDisplay:10.37,2013-02-13 21:01:00,
2013-02-14 08:06:00,64.3,58.0,30.03,NNE,24,0.0,0.0,80,0.00,CLR,,0.00,WeatherDisplay:10.37,2013-02-13 21:06:00,
2013-02-14 08:11:00,64.6,58.3,30.03,NNE,19,0.0,0.0,80,0.00,CLR,,0.00,WeatherDisplay:10.37,2013-02-13 21:11:00,
2013-02-14 08:16:00,64.8,58.4,30.03,NNE,22,0.0,0.0,80,0.00,CLR,,0.00,WeatherDisplay:10.37,2013-02-13 21:16:00,
2013-02-14 08:21:00,64.9,58.6,30.03,NNE,15,0.0,0.0,80,0.00,CLR,,0.00,WeatherDisplay:10.37,2013-02-13 21:21:00,
2013-02-14 08:26:00,65.1,58.8,30.03,NNE,22,0.0,0.0,80,0.00,CLR,,0.00,WeatherDisplay:10.37,2013-02-13 21:26:00,
2013-02-14 08:31:00,65.5,59.1,30.03,NNE,29,0.0,0.0,80,0.00,CLR,,0.00,WeatherDisplay:10.37,2013-02-13 21:31:00,
2013-02-14 08:36:00,66.0,59.7,30.03,NNE,15,0.0,0.0,80,0.00,CLR,,0.00,WeatherDisplay:10.37,2013-02-13 21:36:00,
2013-02-14 08:41:00,66.6,60.3,30.03,North,354,0.0,0.0,80,0.00,CLR,,0.00,WeatherDisplay:10.37,2013-02-13 21:41:00,
2013-02-14 08:46:00,67.3,60.5,30.03,North,1,1.0,4.0,79,0.00,CLR,,0.00,WeatherDisplay:10.37,2013-02-13 21:46:00,
2013-02-14 08:51:00,67.8,60.7,30.03,SW,234,1.0,4.0,78,0.00,CLR,,0.00,WeatherDisplay:10.37,2013-02-13 21:51:00,
2013-02-14 08:56:00,68.4,60.9,30.04,NNW,343,1.0,2.0,77,0.00,CLR,,0.00,WeatherDisplay:10.37,2013-02-13 21:56:00,
2013-02-14 09:01:00,68.8,61.3,30.04,NE,35,0.0,2.0,77,0.00,CLR,,0.00,WeatherDisplay:10.37,2013-02-13 22:01:00,
2013-02-14 09:06:00,69.4,61.5,30.04,SSE,149,0.0,2.0,76,0.00,CLR,,0.00,WeatherDisplay:10.37,2013-02-13 22:06:00,
2013-02-14 09:11:00,69.6,61.3,30.04,SSW,213,5.0,5.0,75,0.00,CLR,,0.00,WeatherDisplay:10.37,2013-02-13 22:11:00,
2013-02-14 09:16:00,70.0,61.7,30.03,WSW,241,3.0,7.0,75,0.00,CLR,,0.00,WeatherDisplay:10.37,2013-02-13 22:16:00,
2013-02-14 09:21:00,70.2,61.5,30.04,WSW,245,1.0,4.0,74,0.00,CLR,,0.00,WeatherDisplay:10.37,2013-02-13 22:21:00,
2013-02-14 09:26:00,70.3,61.7,30.04,SSW,213,2.0,5.0,74,0.00,CLR,,0.00,WeatherDisplay:10.37,2013-02-13 22:26:00,
2013-02-14 09:31:00,70.6,61.5,30.04,SW,216,0.0,5.0,73,0.00,CLR,,0.00,WeatherDisplay:10.37,2013-02-13 22:31:00,
2013-02-14 09:36:00,70.9,61.8,30.04,SSW,211,1.0,2.0,73,0.00,CLR,,0.00,WeatherDisplay:10.37,2013-02-13 22:36:00,
2013-02-14 09:41:00,71.2,62.1,30.04,SW,230,2.0,4.0,73,0.00,CLR,,0.00,WeatherDisplay:10.37,2013-02-13 22:41:00,
2013-02-14 09:46:00,71.4,62.3,30.04,SW,214,2.0,5.0,73,0.00,CLR,,0.00,WeatherDisplay:10.37,2013-02-13 22:46:00,
2013-02-14 09:51:00,72.0,62.8,30.04,SW,221,0.0,5.0,73,0.00,CLR,,0.00,WeatherDisplay:10.37,2013-02-13 22:51:00,
2013-02-14 09:56:00,72.4,63.3,30.04,SSW,197,0.0,5.0,73,0.00,CLR,,0.00,WeatherDisplay:10.37,2013-02-13 22:56:00,
2013-02-14 10:01:00,73.2,63.2,30.04,West,265,2.0,6.0,71,0.00,CLR,,0.00,WeatherDisplay:10.37,2013-02-13 23:01:00,
2013-02-14 10:06:00,73.9,63.5,30.04,WNW,292,0.0,4.0,70,0.00,CLR,,0.00,WeatherDisplay:10.37,2013-02-13 23:06:00,
2013-02-14 10:11:00,74.5,63.6,30.04,SSW,202,2.0,4.0,69,0.00,CLR,,0.00,WeatherDisplay:10.37,2013-02-13 23:11:00,
2013-02-14 10:16:00,75.3,64.0,30.04,SSW,203,2.0,5.0,68,0.00,CLR,,0.00,WeatherDisplay:10.37,2013-02-13 23:16:00,
2013-02-14 10:21:00,75.9,63.7,30.04,South,188,2.0,5.0,66,0.00,CLR,,0.00,WeatherDisplay:10.37,2013-02-13 23:21:00,
2013-02-14 10:26:00,76.8,63.7,30.03,SSW,205,2.0,5.0,64,0.00,CLR,,0.00,WeatherDisplay:10.37,2013-02-13 23:26:00,
2013-02-14 10:31:00,77.6,63.6,30.03,SSW,213,2.0,5.0,62,0.00,CLR,,0.00,WeatherDisplay:10.37,2013-02-13 23:31:00,
2013-02-14 10:36:00,77.5,63.5,30.03,SW,223,1.0,3.0,62,0.00,CLR,,0.00,WeatherDisplay:10.37,2013-02-13 23:36:00,
2013-02-14 10:41:00,77.3,63.2,30.03,SSW,207,2.0,5.0,62,0.00,CLR,,0.00,WeatherDisplay:10.37,2013-02-13 23:41:00,
2013-02-14 10:46:00,76.9,62.9,30.03,SSW,210,2.0,4.0,62,0.00,CLR,,0.00,WeatherDisplay:10.37,2013-02-13 23:46:00,
2013-02-14 10:51:00,76.8,62.3,30.03,West,274,0.0,2.0,61,0.00,CLR,,0.00,WeatherDisplay:10.37,2013-02-13 23:51:00,
2013-02-14 10:56:00,76.6,62.6,30.03,NW,317,0.0,2.0,62,0.00,CLR,,0.00,WeatherDisplay:10.37,2013-02-13 23:56:00,
2013-02-14 11:01:00,76.4,62.9,30.03,ENE,60,0.0,1.0,63,0.00,CLR,,0.00,WeatherDisplay:10.37,2013-02-14 00:01:00,
2013-02-14 11:06:00,76.5,62.5,30.03,NE,41,2.0,5.0,62,0.00,CLR,,0.00,WeatherDisplay:10.37,2013-02-14 00:06:00,
2013-02-14 11:11:00,76.8,62.3,30.03,NE,49,2.0,4.0,61,0.00,CLR,,0.00,WeatherDisplay:10.37,2013-02-14 00:11:00,
2013-02-14 11:16:00,76.8,61.9,30.03,NE,53,1.0,8.0,60,0.00,CLR,,0.00,WeatherDisplay:10.37,2013-02-14 00:16:00,
2013-02-14 11:21:00,76.8,61.9,30.03,NE,34,0.0,3.0,60,0.00,CLR,,0.00,WeatherDisplay:10.37,2013-02-14 00:21:00,
2013-02-14 11:26:00,77.3,62.3,30.02,ENE,64,0.0,4.0,60,0.00,CLR,,0.00,WeatherDisplay:10.37,2013-02-14 00:26:00,
2013-02-14 11:31:00,77.5,62.6,30.03,NE,50,0.0,4.0,60,0.00,CLR,,0.00,WeatherDisplay:10.37,2013-02-14 00:31:00,
2013-02-14 11:36:00,78.1,62.6,30.03,NE,50,5.0,8.0,59,0.00,CLR,,0.00,WeatherDisplay:10.37,2013-02-14 00:36:00,
2013-02-14 11:41:00,78.5,62.5,30.02,NE,56,0.0,2.0,58,0.00,CLR,,0.00,WeatherDisplay:10.37,2013-02-14 00:41:00,
2013-02-14 11:46:00,78.6,62.1,30.02,ESE,105,3.0,6.0,57,0.00,CLR,,0.00,WeatherDisplay:10.37,2013-02-14 00:46:00,
2013-02-14 11:51:00,79.0,62.0,30.02,NNE,30,2.0,5.0,56,0.00,CLR,,0.00,WeatherDisplay:10.37,2013-02-14 00:51:00,
2013-02-14 11:56:00,79.3,61.7,30.01,NNE,28,0.0,3.0,55,0.00,CLR,,0.00,WeatherDisplay:10.37,2013-02-14 00:56:00,
2013-02-14 12:01:00,79.2,61.7,30.01,NNE,13,2.0,9.0,55,0.00,CLR,,0.00,WeatherDisplay:10.37,2013-02-14 01:01:00,
2013-02-14 12:06:00,79.3,61.8,30.01,North,8,1.0,9.0,55,0.00,CLR,,0.00,WeatherDisplay:10.37,2013-02-14 01:06:00,
2013-02-14 12:11:00,79.7,62.1,30.01,NNE,18,3.0,7.0,55,0.00,CLR,,0.00,WeatherDisplay:10.37,2013-02-14 01:11:00,
2013-02-14 12:16:00,80.4,62.7,30.01,North,8,1.0,4.0,55,0.00,CLR,,0.00,WeatherDisplay:10.37,2013-02-14 01:16:00,
2013-02-14 12:21:00,81.0,62.7,30.01,North,350,1.0,6.0,54,0.00,CLR,,0.00,WeatherDisplay:10.37,2013-02-14 01:21:00,
2013-02-14 12:26:00,81.3,62.6,30.01,NNW,332,1.0,6.0,53,0.00,CLR,,0.00,WeatherDisplay:10.37,2013-02-14 01:26:00,
2013-02-14 12:31:00,81.7,62.9,30.00,NNW,334,0.0,5.0,53,0.00,CLR,,0.00,WeatherDisplay:10.37,2013-02-14 01:31:00,
2013-02-14 12:36:00,81.7,62.9,30.01,NNW,346,1.0,8.0,53,0.00,CLR,,0.00,WeatherDisplay:10.37,2013-02-14 01:36:00,
2013-02-14 12:41:00,82.0,62.7,30.00,NW,319,1.0,10.0,52,0.00,CLR,,0.00,WeatherDisplay:10.37,2013-02-14 01:41:00,
2013-02-14 12:46:00,82.6,63.2,30.00,NW,305,1.0,4.0,52,0.00,CLR,,0.00,WeatherDisplay:10.37,2013-02-14 01:46:00,
2013-02-14 12:51:00,82.6,62.6,30.00,NNW,343,2.0,3.0,51,0.00,CLR,,0.00,WeatherDisplay:10.37,2013-02-14 01:51:00,
2013-02-14 12:56:00,82.6,62.7,30.00,WSW,257,1.0,6.0,51,0.00,CLR,,0.00,WeatherDisplay:10.37,2013-02-14 01:56:00,
2013-02-14 13:01:00,82.9,63.0,30.00,SW,223,1.0,5.0,51,0.00,CLR,,0.00,WeatherDisplay:10.37,2013-02-14 02:01:00,
2013-02-14 13:11:00,83.1,63.1,30.00,ENE,59,2.0,8.0,51,0.00,CLR,,0.00,WeatherDisplay:10.37,2013-02-14 02:11:00,
2013-02-14 13:16:00,83.1,63.1,30.00,NE,53,2.0,9.0,51,0.00,CLR,,0.00,WeatherDisplay:10.37,2013-02-14 02:16:00,
2013-02-14 13:21:00,83.3,63.8,30.00,NE,36,2.0,9.0,52,0.00,CLR,,0.00,WeatherDisplay:10.37,2013-02-14 02:21:00,
2013-02-14 13:26:00,83.5,64.0,30.00,NNE,13,2.0,4.0,52,0.00,CLR,,0.00,WeatherDisplay:10.37,2013-02-14 02:26:00,
2013-02-14 13:31:00,83.7,63.6,30.00,NNE,21,2.0,6.0,51,0.00,CLR,,0.00,WeatherDisplay:10.37,2013-02-14 02:31:00,
2013-02-14 13:36:00,83.9,63.8,30.00,NNE,32,2.0,5.0,51,0.00,CLR,,0.00,WeatherDisplay:10.37,2013-02-14 02:36:00,
2013-02-14 13:41:00,83.8,63.8,29.99,NE,47,2.0,7.0,51,0.00,CLR,,0.00,WeatherDisplay:10.37,2013-02-14 02:41:00,
2013-02-14 13:46:00,83.8,63.8,29.99,NE,46,3.0,8.0,51,0.00,CLR,,0.00,WeatherDisplay:10.37,2013-02-14 02:46:00,
2013-02-14 13:51:00,84.0,63.9,29.99,NE,48,0.0,6.0,51,0.00,CLR,,0.00,WeatherDisplay:10.37,2013-02-14 02:51:00,
2013-02-14 13:56:00,84.0,63.9,29.99,ENE,62,3.0,8.0,51,0.00,CLR,,0.00,WeatherDisplay:10.37,2013-02-14 02:56:00,
2013-02-14 14:01:00,84.1,64.0,29.99,ENE,57,5.0,7.0,51,0.00,CLR,,0.00,WeatherDisplay:10.37,2013-02-14 03:01:00,
2013-02-14 14:06:00,84.1,64.0,29.99,NE,45,2.0,8.0,51,0.00,CLR,,0.00,WeatherDisplay:10.37,2013-02-14 03:06:00,
2013-02-14 14:11:00,84.2,63.5,29.99,NE,43,2.0,7.0,50,0.00,CLR,,0.00,WeatherDisplay:10.37,2013-02-14 03:11:00,
2013-02-14 14:16:00,84.0,62.8,29.98,NE,55,2.0,10.0,49,0.00,CLR,,0.00,WeatherDisplay:10.37,2013-02-14 03:16:00,
2013-02-14 14:21:00,83.8,63.2,29.98,North,9,2.0,5.0,50,0.00,CLR,,0.00,WeatherDisplay:10.37,2013-02-14 03:21:00,
2013-02-14 14:26:00,84.0,62.8,29.99,ENE,68,2.0,5.0,49,0.00,CLR,,0.00,WeatherDisplay:10.37,2013-02-14 03:26:00,
2013-02-14 14:31:00,84.4,63.1,29.98,East,97,2.0,8.0,49,0.00,CLR,,0.00,WeatherDisplay:10.37,2013-02-14 03:31:00,
2013-02-14 14:36:00,84.4,63.1,29.98,NNE,24,1.0,5.0,49,0.00,CLR,,0.00,WeatherDisplay:10.37,2013-02-14 03:36:00,
2013-02-14 14:41:00,84.2,63.0,29.98,NE,37,1.0,7.0,49,0.00,CLR,,0.00,WeatherDisplay:10.37,2013-02-14 03:41:00,
2013-02-14 14:46:00,84.2,63.0,29.98,ENE,72,2.0,7.0,49,0.00,CLR,,0.00,WeatherDisplay:10.37,2013-02-14 03:46:00,
2013-02-14 14:51:00,84.4,63.1,29.98,NE,35,1.0,8.0,49,0.00,CLR,,0.00,WeatherDisplay:10.37,2013-02-14 03:51:00,
2013-02-14 14:56:00,84.4,63.7,29.97,NNE,30,3.0,8.0,50,0.00,CLR,,0.00,WeatherDisplay:10.37,2013-02-14 03:56:00,
2013-02-14 15:01:00,84.4,63.1,29.98,NNW,346,1.0,8.0,49,0.00,CLR,,0.00,WeatherDisplay:10.37,2013-02-14 04:01:00,
2013-02-14 15:06:00,84.4,63.7,29.98,North,1,2.0,7.0,50,0.00,CLR,,0.00,WeatherDisplay:10.37,2013-02-14 04:06:00,
2013-02-14 15:11:00,84.4,63.7,29.97,NNE,27,2.0,8.0,50,0.00,CLR,,0.00,WeatherDisplay:10.37,2013-02-14 04:11:00,
2013-02-14 15:16:00,84.4,63.7,29.97,NE,37,1.0,5.0,50,0.00,CLR,,0.00,WeatherDisplay:10.37,2013-02-14 04:16:00,
2013-02-14 15:21:00,84.6,63.4,29.97,NNE,33,2.0,6.0,49,0.00,CLR,,0.00,WeatherDisplay:10.37,2013-02-14 04:21:00,
2013-02-14 15:26:00,84.7,63.5,29.97,NE,40,1.0,5.0,49,0.00,CLR,,0.00,WeatherDisplay:10.37,2013-02-14 04:26:00,
2013-02-14 15:31:00,84.6,62.7,29.97,NE,55,2.0,6.0,48,0.00,CLR,,0.00,WeatherDisplay:10.37,2013-02-14 04:31:00,
2013-02-14 15:36:00,84.0,62.8,29.97,NNE,24,1.0,9.0,49,0.00,CLR,,0.00,WeatherDisplay:10.37,2013-02-14 04:36:00,
2013-02-14 15:41:00,83.9,62.7,29.96,North,351,1.0,9.0,49,0.00,CLR,,0.00,WeatherDisplay:10.37,2013-02-14 04:41:00,
2013-02-14 15:46:00,83.7,62.5,29.96,NNE,20,3.0,7.0,49,0.00,CLR,,0.00,WeatherDisplay:10.37,2013-02-14 04:46:00,
2013-02-14 15:51:00,83.5,62.9,29.96,NNE,33,2.0,4.0,50,0.00,CLR,,0.00,WeatherDisplay:10.37,2013-02-14 04:51:00,
2013-02-14 15:56:00,83.6,63.0,29.97,NE,37,5.0,8.0,50,0.00,CLR,,0.00,WeatherDisplay:10.37,2013-02-14 04:56:00,
2013-02-14 16:01:00,83.2,62.7,29.96,NE,51,2.0,5.0,50,0.00,CLR,,0.00,WeatherDisplay:10.37,2013-02-14 05:01:00,
2013-02-14 16:06:00,82.8,62.2,29.96,NE,46,1.0,5.0,50,0.00,CLR,,0.00,WeatherDisplay:10.37,2013-02-14 05:06:00,
2013-02-14 16:11:00,82.4,63.0,29.96,East,82,3.0,7.0,52,0.00,CLR,,0.00,WeatherDisplay:10.37,2013-02-14 05:11:00,
2013-02-14 16:16:00,82.6,62.6,29.96,South,178,1.0,6.0,51,0.00,CLR,,0.00,WeatherDisplay:10.37,2013-02-14 05:16:00,
2013-02-14 16:21:00,82.2,62.3,29.96,NNW,347,2.0,5.0,51,0.00,CLR,,0.00,WeatherDisplay:10.37,2013-02-14 05:21:00,
2013-02-14 16:26:00,82.2,62.8,29.96,NNE,14,2.0,7.0,52,0.00,CLR,,0.00,WeatherDisplay:10.37,2013-02-14 05:26:00,
2013-02-14 16:31:00,82.0,62.7,29.96,NNE,20,0.0,6.0,52,0.00,CLR,,0.00,WeatherDisplay:10.37,2013-02-14 05:31:00,
2013-02-14 16:36:00,82.0,63.2,29.96,NE,45,1.0,5.0,53,0.00,CLR,,0.00,WeatherDisplay:10.37,2013-02-14 05:36:00,
2013-02-14 16:41:00,82.2,63.3,29.96,North,7,2.0,6.0,53,0.00,CLR,,0.00,WeatherDisplay:10.37,2013-02-14 05:41:00,
2013-02-14 16:46:00,82.1,63.3,29.96,NW,311,1.0,5.0,53,0.00,CLR,,0.00,WeatherDisplay:10.37,2013-02-14 05:46:00,
2013-02-14 16:51:00,81.7,62.9,29.96,NNE,17,2.0,5.0,53,0.00,CLR,,0.00,WeatherDisplay:10.37,2013-02-14 05:51:00,
2013-02-14 16:56:00,81.5,63.3,29.96,NNE,31,1.0,5.0,54,0.00,CLR,,0.00,WeatherDisplay:10.37,2013-02-14 05:56:00,
2013-02-14 17:01:00,81.5,63.8,29.96,North,11,2.0,6.0,55,0.00,CLR,,0.00,WeatherDisplay:10.37,2013-02-14 06:01:00,
2013-02-14 17:06:00,81.5,63.8,29.96,NNE,31,2.0,5.0,55,0.00,CLR,,0.00,WeatherDisplay:10.37,2013-02-14 06:06:00,
2013-02-14 17:11:00,81.2,63.5,29.95,North,4,1.0,6.0,55,0.00,CLR,,0.00,WeatherDisplay:10.37,2013-02-14 06:11:00,
2013-02-14 17:16:00,81.1,63.4,29.95,North,351,2.0,5.0,55,0.00,CLR,,0.00,WeatherDisplay:10.37,2013-02-14 06:16:00,
2013-02-14 17:21:00,80.9,63.7,29.95,NNW,346,2.0,4.0,56,0.00,CLR,,0.00,WeatherDisplay:10.37,2013-02-14 06:21:00,
2013-02-14 17:26:00,80.4,62.8,29.96,NW,315,1.0,7.0,55,0.00,CLR,,0.00,WeatherDisplay:10.37,2013-02-14 06:26:00,
2013-02-14 17:31:00,80.2,63.1,29.95,East,80,1.0,6.0,56,0.00,CLR,,0.00,WeatherDisplay:10.37,2013-02-14 06:31:00,
2013-02-14 17:36:00,80.1,63.5,29.95,East,98,0.0,6.0,57,0.00,CLR,,0.00,WeatherDisplay:10.37,2013-02-14 06:36:00,
2013-02-14 17:41:00,79.9,63.3,29.95,ESE,119,1.0,5.0,57,0.00,CLR,,0.00,WeatherDisplay:10.37,2013-02-14 06:41:00,
2013-02-14 17:51:00,79.9,63.3,29.95,ESE,104,0.0,6.0,57,0.00,CLR,,0.00,WeatherDisplay:10.37,2013-02-14 06:51:00,
2013-02-14 17:56:00,79.7,63.6,29.95,NNE,27,1.0,8.0,58,0.00,CLR,,0.00,WeatherDisplay:10.37,2013-02-14 06:56:00,
2013-02-14 18:01:00,79.7,63.6,29.95,ENE,61,1.0,5.0,58,0.00,CLR,,0.00,WeatherDisplay:10.37,2013-02-14 07:01:00,
2013-02-14 18:06:00,79.5,63.9,29.95,ESE,104,2.0,6.0,59,0.00,CLR,,0.00,WeatherDisplay:10.37,2013-02-14 07:06:00,
2013-02-14 18:11:00,79.3,63.8,29.95,ENE,77,1.0,5.0,59,0.00,CLR,,0.00,WeatherDisplay:10.37,2013-02-14 07:11:00,
2013-02-14 18:16:00,79.2,64.1,29.95,SE,139,1.0,4.0,60,0.00,CLR,,0.00,WeatherDisplay:10.37,2013-02-14 07:16:00,
2013-02-14 18:21:00,79.0,64.4,29.95,SSW,207,1.0,4.0,61,0.00,CLR,,0.00,WeatherDisplay:10.37,2013-02-14 07:21:00,
2013-02-14 18:26:00,78.6,64.0,29.95,SSE,151,1.0,6.0,61,0.00,CLR,,0.00,WeatherDisplay:10.37,2013-02-14 07:26:00,
2013-02-14 18:31:00,78.6,64.5,29.95,North,10,1.0,4.0,62,0.00,CLR,,0.00,WeatherDisplay:10.37,2013-02-14 07:31:00,
2013-02-14 18:36:00,78.5,64.9,29.95,WSW,258,1.0,7.0,63,0.00,CLR,,0.00,WeatherDisplay:10.37,2013-02-14 07:36:00,
2013-02-14 18:41:00,78.1,64.5,29.94,South,175,1.0,5.0,63,0.00,CLR,,0.00,WeatherDisplay:10.37,2013-02-14 07:41:00,
2013-02-14 18:46:00,78.1,64.5,29.94,SSE,162,1.0,5.0,63,0.00,CLR,,0.00,WeatherDisplay:10.37,2013-02-14 07:46:00,
2013-02-14 18:51:00,77.9,64.3,29.95,NE,44,3.0,5.0,63,0.00,CLR,,0.00,WeatherDisplay:10.37,2013-02-14 07:51:00,
2013-02-14 18:56:00,77.7,64.6,29.95,NNE,33,2.0,10.0,64,0.00,CLR,,0.00,WeatherDisplay:10.37,2013-02-14 07:56:00,
2013-02-14 19:01:00,77.6,64.4,29.95,NNE,30,2.0,7.0,64,0.00,CLR,,0.00,WeatherDisplay:10.37,2013-02-14 08:01:00,
2013-02-14 19:06:00,77.4,64.2,29.95,NNE,27,2.0,6.0,64,0.00,CLR,,0.00,WeatherDisplay:10.37,2013-02-14 08:06:00,
2013-02-14 19:11:00,77.2,64.1,29.95,ENE,62,1.0,5.0,64,0.00,CLR,,0.00,WeatherDisplay:10.37,2013-02-14 08:11:00,
2013-02-14 19:16:00,76.8,63.7,29.95,NE,50,0.0,5.0,64,0.00,CLR,,0.00,WeatherDisplay:10.37,2013-02-14 08:16:00,
2013-02-14 19:21:00,76.8,63.7,29.96,NE,52,1.0,4.0,64,0.00,CLR,,0.00,WeatherDisplay:10.37,2013-02-14 08:21:00,
2013-02-14 19:26:00,76.6,63.5,29.96,NE,52,0.0,0.0,64,0.00,CLR,,0.00,WeatherDisplay:10.37,2013-02-14 08:26:00,
2013-02-14 19:31:00,76.4,63.3,29.96,NE,54,1.0,5.0,64,0.00,CLR,,0.00,WeatherDisplay:10.37,2013-02-14 08:31:00,
2013-02-14 19:36:00,76.1,63.0,29.96,NE,41,0.0,8.0,64,0.00,CLR,,0.00,WeatherDisplay:10.37,2013-02-14 08:36:00,
2013-02-14 19:41:00,75.9,62.9,29.96,ENE,57,0.0,3.0,64,0.00,CLR,,0.00,WeatherDisplay:10.37,2013-02-14 08:41:00,
2013-02-14 19:46:00,75.9,63.3,29.96,ENE,74,2.0,7.0,65,0.00,CLR,,0.00,WeatherDisplay:10.37,2013-02-14 08:46:00,
2013-02-14 19:51:00,75.6,63.0,29.97,ENE,61,1.0,6.0,65,0.00,CLR,,0.00,WeatherDisplay:10.37,2013-02-14 08:51:00,
2013-02-14 19:56:00,75.4,63.3,29.97,NW,324,0.0,3.0,66,0.00,CLR,,0.00,WeatherDisplay:10.37,2013-02-14 08:56:00,
2013-02-14 20:01:00,75.4,63.7,29.96,ESE,114,0.0,0.0,67,0.00,CLR,,0.00,WeatherDisplay:10.37,2013-02-14 09:01:00,
2013-02-14 20:06:00,75.2,63.5,29.97,ENE,65,0.0,4.0,67,0.00,CLR,,0.00,WeatherDisplay:10.37,2013-02-14 09:06:00,
2013-02-14 20:11:00,75.0,63.3,29.97,East,83,0.0,3.0,67,0.00,CLR,,0.00,WeatherDisplay:10.37,2013-02-14 09:11:00,
2013-02-14 20:16:00,75.0,63.7,29.97,East,81,0.0,2.0,68,0.00,CLR,,0.00,WeatherDisplay:10.37,2013-02-14 09:16:00,
2013-02-14 20:21:00,74.8,64.0,29.97,East,79,1.0,4.0,69,0.00,CLR,,0.00,WeatherDisplay:10.37,2013-02-14 09:21:00,
2013-02-14 20:26:00,74.8,64.0,29.98,ENE,60,0.0,3.0,69,0.00,CLR,,0.00,WeatherDisplay:10.37,2013-02-14 09:26:00,
2013-02-14 20:31:00,74.6,63.8,29.97,ENE,58,0.0,2.0,69,0.00,CLR,,0.00,WeatherDisplay:10.37,2013-02-14 09:31:00,
2013-02-14 20:36:00,74.5,64.1,29.97,NNE,27,0.0,4.0,70,0.00,CLR,,0.00,WeatherDisplay:10.37,2013-02-14 09:36:00,
2013-02-14 20:41:00,74.5,64.1,29.98,NE,49,2.0,6.0,70,0.00,CLR,,0.00,WeatherDisplay:10.37,2013-02-14 09:41:00,
2013-02-14 20:46:00,74.3,64.3,29.98,ENE,70,0.0,6.0,71,0.00,CLR,,0.00,WeatherDisplay:10.37,2013-02-14 09:46:00,
2013-02-14 20:51:00,74.1,64.1,29.98,ENE,78,0.0,4.0,71,0.00,CLR,,0.00,WeatherDisplay:10.37,2013-02-14 09:51:00,
2013-02-14 20:56:00,73.9,63.9,29.99,ENE,66,0.0,3.0,71,0.00,CLR,,0.00,WeatherDisplay:10.37,2013-02-14 09:56:00,
2013-02-14 21:01:00,73.9,64.3,29.98,ENE,59,0.0,2.0,72,0.00,CLR,,0.00,WeatherDisplay:10.37,2013-02-14 10:01:00,
2013-02-14 21:06:00,73.8,64.2,29.99,NE,44,1.0,3.0,72,0.00,CLR,,0.00,WeatherDisplay:10.37,2013-02-14 10:06:00,
2013-02-14 21:11:00,73.8,64.2,29.99,NE,43,1.0,5.0,72,0.00,CLR,,0.00,WeatherDisplay:10.37,2013-02-14 10:11:00,
2013-02-14 21:16:00,73.6,64.0,29.99,ENE,58,1.0,4.0,72,0.00,CLR,,0.00,WeatherDisplay:10.37,2013-02-14 10:16:00,
2013-02-14 21:21:00,73.5,63.9,30.00,ENE,73,0.0,2.0,72,0.00,CLR,,0.00,WeatherDisplay:10.37,2013-02-14 10:21:00,
2013-02-14 21:26:00,73.2,63.7,30.00,East,79,0.0,4.0,72,0.00,CLR,,0.00,WeatherDisplay:10.37,2013-02-14 10:26:00,
2013-02-14 21:31:00,73.2,63.6,29.99,NNE,25,1.0,7.0,72,0.00,CLR,,0.00,WeatherDisplay:10.37,2013-02-14 10:31:00,
2013-02-14 21:36:00,73.2,63.6,29.99,NE,37,1.0,7.0,72,0.00,CLR,,0.00,WeatherDisplay:10.37,2013-02-14 10:36:00,
2013-02-14 21:41:00,73.0,63.5,30.00,NE,56,2.0,3.0,72,0.00,CLR,,0.00,WeatherDisplay:10.37,2013-02-14 10:41:00,
2013-02-14 21:46:00,73.0,63.5,30.00,East,97,0.0,2.0,72,0.00,CLR,,0.00,WeatherDisplay:10.37,2013-02-14 10:46:00,
2013-02-14 21:51:00,73.0,63.5,29.99,East,85,0.0,2.0,72,0.00,CLR,,0.00,WeatherDisplay:10.37,2013-02-14 10:51:00,
2013-02-14 21:56:00,72.9,63.3,29.99,ENE,76,0.0,3.0,72,0.00,CLR,,0.00,WeatherDisplay:10.37,2013-02-14 10:56:00,
2013-02-14 22:01:00,72.8,63.2,29.99,ENE,77,0.0,3.0,72,0.00,CLR,,0.00,WeatherDisplay:10.37,2013-02-14 11:01:00,
2013-02-14 22:06:00,72.7,63.1,29.99,ENE,58,0.0,2.0,72,0.00,CLR,,0.00,WeatherDisplay:10.37,2013-02-14 11:06:00,
2013-02-14 22:11:00,72.6,63.1,29.99,NE,42,0.0,4.0,72,0.00,CLR,,0.00,WeatherDisplay:10.37,2013-02-14 11:11:00,
2013-02-14 22:16:00,72.5,63.0,30.00,NE,49,0.0,5.0,72,0.00,CLR,,0.00,WeatherDisplay:10.37,2013-02-14 11:16:00,
2013-02-14 22:21:00,72.5,63.0,29.99,NE,46,0.0,7.0,72,0.00,CLR,,0.00,WeatherDisplay:10.37,2013-02-14 11:21:00,
2013-02-14 22:26:00,72.3,62.8,29.99,NE,44,0.0,5.0,72,0.00,CLR,,0.00,WeatherDisplay:10.37,2013-02-14 11:26:00,
2013-02-14 22:31:00,72.3,62.8,30.00,NE,50,0.0,3.0,72,0.00,CLR,,0.00,WeatherDisplay:10.37,2013-02-14 11:31:00,
2013-02-14 22:36:00,72.3,62.8,30.00,NE,36,0.0,3.0,72,0.00,CLR,,0.00,WeatherDisplay:10.37,2013-02-14 11:36:00,
2013-02-14 22:46:00,72.1,62.6,30.00,East,83,0.0,0.0,72,0.00,CLR,,0.00,WeatherDisplay:10.37,2013-02-14 11:46:00,
2013-02-14 22:51:00,72.1,62.6,30.00,ENE,73,0.0,0.0,72,0.00,CLR,,0.00,WeatherDisplay:10.37,2013-02-14 11:51:00,
2013-02-14 22:56:00,72.0,62.5,30.00,NE,45,0.0,2.0,72,0.00,CLR,,0.00,WeatherDisplay:10.37,2013-02-14 11:56:00,
2013-02-14 23:01:00,71.8,62.3,29.99,ENE,57,0.0,1.0,72,0.00,CLR,,0.00,WeatherDisplay:10.37,2013-02-14 12:01:00,
2013-02-14 23:06:00,71.8,62.3,30.00,ENE,66,0.0,0.0,72,0.00,CLR,,0.00,WeatherDisplay:10.37,2013-02-14 12:06:00,
2013-02-14 23:11:00,71.8,62.3,30.00,East,86,0.0,2.0,72,0.00,CLR,,0.00,WeatherDisplay:10.37,2013-02-14 12:11:00,
2013-02-14 23:16:00,71.5,62.0,30.00,SE,140,0.0,2.0,72,0.00,CLR,,0.00,WeatherDisplay:10.37,2013-02-14 12:16:00,
2013-02-14 23:21:00,71.4,61.9,30.00,SE,131,0.0,0.0,72,0.00,CLR,,0.00,WeatherDisplay:10.37,2013-02-14 12:21:00,
2013-02-14 23:26:00,71.4,61.9,30.00,East,86,0.0,0.0,72,0.00,CLR,,0.00,WeatherDisplay:10.37,2013-02-14 12:26:00,
2013-02-14 23:31:00,71.4,61.9,30.00,East,81,0.0,2.0,72,0.00,CLR,,0.00,WeatherDisplay:10.37,2013-02-14 12:31:00,
2013-02-14 23:36:00,71.4,62.3,30.00,East,87,0.0,0.0,73,0.00,CLR,,0.00,WeatherDisplay:10.37,2013-02-14 12:36:00,
2013-02-14 23:41:00,71.4,62.3,30.00,East,84,0.0,0.0,73,0.00,CLR,,0.00,WeatherDisplay:10.37,2013-02-14 12:41:00,
2013-02-14 23:46:00,71.4,62.3,29.99,ENE,67,0.0,0.0,73,0.00,CLR,,0.00,WeatherDisplay:10.37,2013-02-14 12:46:00,
2013-02-14 23:51:00,71.4,62.3,30.00,NE,42,0.0,0.0,73,0.00,CLR,,0.00,WeatherDisplay:10.37,2013-02-14 12:51:00,
2013-02-14 23:56:00,71.4,62.3,29.99,NNE,30,0.0,0.0,73,0.00,CLR,,0.00,WeatherDisplay:10.37,2013-02-14 12:56:00,